AirNav   Air Wisconsin pilot careers
 
 444 users online  

9II4 Cruzan Field Airport
Arcadia, Indiana, USA

GOING TO ARCADIA?


FAA INFORMATION EFFECTIVE 03 JANUARY 2019

Location

FAA Identifier: 9II4
Lat/Long: 40-10-21.0000N / 085-56-41.0000W
40-10.350000N / 085-56.683333W
40.1725000 / -85.9447222
(estimated)
Elevation: 845 ft. / 258 m (estimated)
Variation: 03W (1990)
From city: 4 miles E of ARCADIA, IN
Time zone: UTC -5 (UTC -4 during Daylight Saving Time)
Zip code: 46034

Airport Operations

Airport use: Private use. Permission required prior to landing
Activation date: 11/1992
Control tower: no
ARTCC: CHICAGO CENTER
FSS: TERRE HAUTE FLIGHT SERVICE STATION
Attendance: UNATNDD
Wind indicator: yes
Segmented circle: no

Airport Communications

WX AWOS-3 at UMP (15 nm S): 119.375 (317-842-3911)
WX AWOS-3 at AID (16 nm E): 128.55 (765-442-1245)
WX AWOS-3PT at TYQ (16 nm SW): 120.725 (317-769-3154)
WX AWOS-3 at MQJ (20 nm S): 124.175 (317-335-3037)

Nearby radio navigation aids

VOR radial/distance  VOR name  Freq  Var
OKKr171/21.9KOKOMO VORTAC113.5005W
MZZr215/22.8MARION VOR/DME108.6003W
MIEr264/25.5MUNCIE VOR/DME114.4003W
VHPr041/29.0BRICKYARD VORTAC116.3001E
GUSr164/29.9GRISSOM VORTAC108.4502W
SHBr349/32.9SHELBYVILLE VOR/DME112.0001E

 
NDB name  Hdg/Dist  Freq  Var  ID
METROPOLITAN022/14.933803WUMP ..- -- .--.
NEW CASTLE307/33.738506WUWL ..- .-- .-..

Airport Services

Runway Information

Runway 9/27

Dimensions: 2400 x 70 ft. / 732 x 21 m
Surface: turf
RUNWAY 9  RUNWAY 27
Traffic pattern: leftleft
Displaced threshold: no560 ft.
Obstructions: none35 ft. bldg, 140 ft. from runway

Airport Ownership and Management from official FAA records

Ownership: Privately-owned
Owner: ROBERT E. CRUZAN II
26410 S.R. 213
ARCADIA, IN 46030
Phone 317-439-0800
Manager: ROBERT E. CRUZAN II
26410 S.R. 213
ARCADIA, IN 46030
Phone 317-439-0800

Airport Operational Statistics

Aircraft based on the field: 4
Single engine airplanes: 1
Ultralights: 3
    

Instrument Procedures

There are no published instrument procedures at 9II4.

Some nearby airports with instrument procedures:

5I4 - Sheridan Airport (12 nm W)
KUMP - Indianapolis Metropolitan Airport (15 nm S)
KAID - Anderson Municipal Airport-Darlington Field (16 nm E)
KTYQ - Indianapolis Executive Airport (16 nm SW)
KMQJ - Indianapolis Regional Airport (20 nm S)
 
Loc | Ops | Rwys | IFR | FBO | Links
Com | Nav | Svcs | Stats | Notes
Area around 9II4 (Cruzan Field Airport)
 
Road maps at: MapQuest Bing Google
 
Aerial photo
No photo
 
Sectional chart

 
Airport distance calculator
Flying to Cruzan Field Airport? Find the distance to fly.

From to 9II4

Sunrise and sunset
Times for 20-Jan-2019
 Local
(UTC-5)
 Zulu
(UTC)
Morning civil twilight07:3312:33
Sunrise08:0313:03
Sunset17:4722:47
Evening civil twilight18:1623:16

Current date and time
Zulu (UTC)  20-Jan-2019 06:32:18
Local (UTC-5)  20-Jan-2019 01:32:18
 
METAR
KAID 
15nm E 
200615Z AUTO 35006KT 10SM BKN017 M09/M11 A2989 RMK AO2 T10911115
KTYQ 
16nm SW 
200615Z AUTO 35005KT M10/M12 A2992 RMK AO2 SKY OBSCURED T11051125 PWINO
KMQJ 
20nm S 
200616Z AUTO 34013G19KT 7SM SCT017 M09/M10 A2989 RMK AO1
KOKK 
22nm N 
200556Z AUTO 35020G24KT 9SM CLR M11/M12 A2993 RMK AO2 PK WND 36026/0512 SNE53 SLP152 P0000 60000 T11061122 11056 21106 51022 FZRANO
KMZZ 
23nm NE 
200615Z AUTO 36014G20KT 10SM BKN016 M10/M14 A2991 RMK AO2 T10991136
KMIE 
25nm E 
200553Z AUTO 36017G29KT 7SM BKN018 M08/M12 A2986 RMK AO2 PK WND 36030/0526 UPE43 SLP121 P0000 60001 I1000 I6000 T10831122 11050 21083 53026 $
KEYE 
26nm SW 
200612Z AUTO 34015G26KT 9SM SCT015 M08/M12 A2992 RMK AO2 PK WND 33030/0555 T10831122 PWINO FZRANO $
KFKR 
29nm W 
200615Z AUTO 36009G16KT 10SM SCT120 M08/M13 A2996 RMK AO2 T10851127 TSNO
KGUS 
29nm N 
200609Z AUTO 35017G24KT 10SM SCT012 M10/M13 A2992 RMK AO2 DZB00E09 SLP148 FZRANO $
TAF
KGUS 
29nm N 
200305Z 2003/2109 01015G25KT 6000 -SN SCT015 BKN040 OVC150 620409 510102 QNH2982INS TEMPO 2003/2006 02025G35KT OVC015 620159 510003 BECMG 2004/2006 01010G15KT 9999 NSW FEW040 SCT200 QNH2989INS TEMPO 2006/2012 36025G35KT 510003 BECMG 2014/2015 35010G15KT 9999 BKN030 OVC050 620303 QNH3009INS BECMG 2023/2024 35015G20KT 9999 BKN020 OVC030 620204 QNH3018INS TXM07/2003Z TNM13/2011Z
KIND 
31nm SW 
200520Z 2006/2112 36017G30KT 6SM BLSN BR OVC045 FM201000 35015G24KT P6SM SCT120 FM201500 36010KT P6SM FEW200 FM202000 32008KT P6SM BKN080 FM202300 31008KT P6SM BKN030
NOTAMs
Click for the latest NOTAMs
NOTAMs are issued by the DoD/FAA and will open in a separate window not controlled by AirNav.

 

 
 

Would you like to see your business listed on this page?

 If your business provides an interesting product or service to pilots, flight crews, aircraft, or users of the Cruzan Field Airport, you should consider listing it here.  To start the listing process, click on the button below
 
Add a business
 

Other Pages about Cruzan Field Airport

Update a link
 
Copyright © AirNav, LLC. All rights reserved. Privacy Policy  Contact